Merbes-le-Chateau, Belgium
Current Conditions -  °F | °C
As of 12:50 AM on Saturday 22 Nov 2014 (Local Time) from EBCI Reporting Station
Clear Clear  
Wind Chill: 41°   Ceiling: Unl
Heat Index: 45°   Visibility: 4mi
Dew Point: 43°   Wind: 7mph
Humidity: 93%   Direction: 160°SSE
Pressure: 30.03"   Gusts: NA
Location:  50.32°N, 4.16°E
Report Text: EBCI 212350Z 16006KT 6000 NSC 07/06 Q1017 NOSIG
Loading
Personal Weather Stations






























Interactive Weather Map New forecast layout! Learn more

10-Day Weather Forecast

Advertisements
Track Severe Weather on mobile